Time;durP1;ratioP1;P1;durP2;ratioP2;P2;SDS_P1;SDS_P2;PMS_P1;PMS_P2;Temp;Humidity;BMP_temperature;BMP_pressure;BME280_temperature;BME280_humidity;BME280_pressure;Samples;Min_cycle;Max_cycle;Signal;HPM_P1;HPM_P2
2021/01/02 00:01:29;;;;;;;72.13;28.27;;;2.80;99.90;;;;;;4888310;29;20041;-79
2021/01/02 00:04:20;;;;;;;77.55;29.30;;;2.90;99.90;;;;;;4890009;29;20132;-79
2021/01/02 00:06:57;;;;;;;69.53;26.98;;;2.70;99.90;;;;;;4884511;29;20540;-79
2021/01/02 00:09:24;;;;;;;69.70;24.52;;;;;;;;;;4883418;29;20048;-79
2021/01/02 00:12:03;;;;;;;60.35;24.70;;;3.00;99.90;;;;;;4883179;29;20053;-79
2021/01/02 00:14:46;;;;;;;68.35;26.08;;;3.00;99.90;;;;;;4882969;29;20140;-79
2021/01/02 00:17:42;;;;;;;69.63;26.48;;;3.00;99.90;;;;;;4882884;29;20081;-79
2021/01/02 00:20:29;;;;;;;65.68;26.90;;;6.50;99.90;;;;;;4882577;29;20498;-79
2021/01/02 00:22:58;;;;;;;66.57;26.85;;;3.10;99.90;;;;;;4882871;29;20045;-79
2021/01/02 00:25:27;;;;;;;63.25;25.88;;;3.10;99.90;;;;;;4882615;29;20049;-79
2021/01/02 00:28:14;;;;;;;70.05;27.33;;;3.10;99.90;;;;;;4882543;29;20040;-79
2021/01/02 00:30:57;;;;;;;69.45;27.95;;;3.10;99.90;;;;;;4882521;29;20044;-79
2021/01/02 00:33:39;;;;;;;66.70;27.67;;;2.90;99.90;;;;;;4884088;29;20418;-78
2021/01/02 00:36:11;;;;;;;65.72;26.38;;;3.20;99.90;;;;;;4883433;29;20117;-78
2021/01/02 00:38:38;;;;;;;71.32;28.00;;;3.20;99.90;;;;;;4885695;29;20041;-78
2021/01/02 00:41:05;;;;;;;67.30;27.13;;;3.10;99.90;;;;;;4886069;29;20056;-78
2021/01/02 00:43:33;;;;;;;67.07;26.45;;;3.20;99.90;;;;;;4870219;29;20132;-79
2021/01/02 00:46:02;;;;;;;73.80;27.98;;;;;;;;;;4884488;29;20052;-79
2021/01/02 00:48:32;;;;;;;63.92;27.40;;;3.20;99.90;;;;;;4883928;29;20156;-80
2021/01/02 00:51:03;;;;;;;75.63;28.77;;;3.20;99.90;;;;;;4883833;29;20053;-81
2021/01/02 00:53:51;;;;;;;72.35;29.60;;;3.10;99.90;;;;;;4885192;29;20052;-80
2021/01/02 00:56:28;;;;;;;71.47;27.98;;;;;;;;;;4887987;29;20077;-78
2021/01/02 00:59:43;;;;;;;69.10;28.35;;;3.20;99.90;;;;;;4889193;29;20045;-82
2021/01/02 01:02:43;;;;;;;68.78;25.45;;;3.10;99.90;;;;;;4893097;29;20502;-82
2021/01/02 01:05:12;;;;;;;60.25;25.23;;;3.00;99.90;;;;;;4894112;29;20049;-81
2021/01/02 01:07:38;;;;;;;73.30;28.77;;;;;;;;;;4892229;29;20063;-81
2021/01/02 01:10:10;;;;;;;63.78;26.20;;;3.10;99.90;;;;;;4898240;29;20052;-83
2021/01/02 01:12:42;;;;;;;68.55;27.70;;;3.20;99.90;;;;;;4898630;29;20063;-82
2021/01/02 01:15:10;;;;;;;61.95;24.88;;;3.10;99.90;;;;;;4884297;29;20483;-80
2021/01/02 01:17:48;;;;;;;63.10;26.33;;;3.10;99.90;;;;;;4881492;29;20053;-78
2021/01/02 01:20:17;;;;;;;62.30;26.10;;;4.80;99.90;;;;;;4883939;29;20072;-80
2021/01/02 01:22:54;;;;;;;69.18;27.48;;;3.10;99.90;;;;;;4883597;29;20119;-80
2021/01/02 01:25:39;;;;;;;63.22;25.30;;;3.10;99.90;;;;;;4882111;29;20044;-81
2021/01/02 01:28:09;;;;;;;67.05;24.25;;;3.10;99.90;;;;;;4881116;29;20101;-77
2021/01/02 01:30:39;;;;;;;66.25;24.73;;;3.00;99.90;;;;;;4882859;29;20056;-78
2021/01/02 01:33:08;;;;;;;65.05;25.88;;;3.10;99.90;;;;;;4882090;29;20045;-78
2021/01/02 01:35:41;;;;;;;62.47;25.25;;;3.20;99.90;;;;;;4881247;29;20055;-79
2021/01/02 01:38:07;;;;;;;65.05;26.33;;;;;;;;;;4883040;29;20057;-78
2021/01/02 01:40:37;;;;;;;65.43;27.58;;;3.10;99.90;;;;;;4882888;29;20041;-80
2021/01/02 01:43:04;;;;;;;73.82;28.40;;;3.10;99.90;;;;;;4881837;29;20052;-78
2021/01/02 01:46:21;;;;;;;66.18;27.08;;;3.10;99.90;;;;;;4884297;29;20410;-78
2021/01/02 01:49:06;;;;;;;66.55;27.05;;;3.10;99.90;;;;;;4883718;29;20566;-78
2021/01/02 01:51:57;;;;;;;66.53;25.80;;;3.00;99.90;;;;;;4883152;29;20132;-78
2021/01/02 01:54:50;;;;;;;65.18;27.35;;;3.10;99.90;;;;;;4874771;29;20053;-80
2021/01/02 01:57:22;;;;;;;72.28;27.42;;;3.10;99.90;;;;;;4883549;29;20041;-80
2021/01/02 02:00:05;;;;;;;66.43;27.17;;;3.20;99.90;;;;;;4882968;29;20053;-78
2021/01/02 02:03:04;;;;;;;64.10;27.17;;;3.20;99.90;;;;;;4882829;29;20053;-78
2021/01/02 02:06:00;;;;;;;73.65;28.05;;;3.30;99.90;;;;;;4883056;29;20513;-78
2021/01/02 02:08:41;;;;;;;61.90;26.30;;;3.20;99.90;;;;;;4882971;29;20056;-78
2021/01/02 02:11:31;;;;;;;65.63;27.33;;;3.20;99.90;;;;;;4884394;29;20049;-79
2021/01/02 02:14:06;;;;;;;64.40;25.55;;;3.20;99.90;;;;;;4882289;29;20057;-79
2021/01/02 02:16:40;;;;;;;60.95;26.52;;;3.30;99.90;;;;;;4882929;29;20080;-78
2021/01/02 02:19:34;;;;;;;68.30;28.05;;;3.20;99.90;;;;;;4882846;29;20045;-78
2021/01/02 02:22:05;;;;;;;63.63;26.35;;;3.20;99.90;;;;;;4881196;29;20491;-79
2021/01/02 02:24:32;;;;;;;70.15;27.30;;;3.20;99.90;;;;;;4885123;29;20045;-80
2021/01/02 02:27:01;;;;;;;67.78;26.67;;;3.20;99.90;;;;;;4884059;29;20072;-81
2021/01/02 02:29:37;;;;;;;70.13;28.48;;;3.20;99.90;;;;;;4883669;29;20045;-79
2021/01/02 02:32:08;;;;;;;69.20;27.02;;;3.20;99.90;;;;;;4886548;29;20038;-79
2021/01/02 02:34:35;;;;;;;71.07;27.92;;;;;;;;;;4888446;29;20117;-79
2021/01/02 02:37:02;;;;;;;69.13;28.77;;;3.20;99.90;;;;;;4888560;29;20044;-78
2021/01/02 02:39:28;;;;;;;69.85;27.55;;;3.10;99.90;;;;;;4888780;29;20061;-79
2021/01/02 02:41:59;;;;;;;71.03;27.60;;;3.10;99.90;;;;;;4890108;29;20045;-80
2021/01/02 02:44:26;;;;;;;72.75;28.23;;;;;;;;;;4891584;29;20045;-79
2021/01/02 02:46:57;;;;;;;61.72;27.13;;;3.10;99.90;;;;;;4892200;29;20073;-79
2021/01/02 02:49:24;;;;;;;68.35;26.65;;;3.10;99.90;;;;;;4895880;29;20047;-78
2021/01/02 02:51:54;;;;;;;66.88;29.15;;;3.10;99.90;;;;;;4899465;29;20040;-81
2021/01/02 02:54:22;;;;;;;;;;;3.50;99.90;;;;;;4895445;29;20052;-79
2021/01/02 02:56:48;;;;;;;66.90;26.05;;;;;;;;;;4885805;29;19927;-78
2021/01/02 02:59:14;;;;;;;66.30;26.10;;;;;;;;;;4884999;29;20045;-78
2021/01/02 03:01:40;;;;;;;66.73;26.80;;;3.10;99.90;;;;;;4885151;29;20049;-77
2021/01/02 03:04:06;;;;;;;60.53;26.00;;;;;;;;;;4885591;29;20121;-78
2021/01/02 03:06:32;;;;;;;62.53;25.15;;;;;;;;;;4884843;29;20052;-79
2021/01/02 03:08:58;;;;;;;75.60;27.50;;;;;;;;;;4886125;29;20093;-79
2021/01/02 03:11:25;;;;;;;71.38;26.48;;;3.10;99.90;;;;;;4885399;29;20058;-78
2021/01/02 03:13:52;;;;;;;68.55;27.55;;;;;;;;;;4884775;29;20081;-79
2021/01/02 03:16:18;;;;;;;75.10;29.50;;;;;;;;;;4884847;29;20101;-79
2021/01/02 03:18:44;;;;;;;72.43;27.52;;;3.10;99.90;;;;;;4884847;29;20040;-79
2021/01/02 03:21:10;;;;;;;76.97;28.52;;;;;;;;;;4885119;29;20452;-79
2021/01/02 03:23:46;;;;;;;74.38;27.75;;;3.10;99.90;;;;;;4881946;29;20074;-79
2021/01/02 03:26:12;;;;;;;71.70;27.73;;;;;;;;;;4885175;29;20055;-79
2021/01/02 03:28:39;;;;;;;74.10;28.88;;;;;;;;;;4884543;29;20078;-79
2021/01/02 03:31:05;;;;;;;79.25;29.50;;;;;;;;;;4884209;29;20052;-79
2021/01/02 03:33:31;;;;;;;76.85;28.35;;;;;;;;;;4884348;29;20096;-80
2021/01/02 03:35:58;;;;;;;88.72;31.05;;;3.20;99.90;;;;;;4884663;29;20051;-79
2021/01/02 03:38:25;;;;;;;86.82;30.90;;;3.10;99.90;;;;;;4884799;29;20130;-79
2021/01/02 03:40:51;;;;;;;90.88;31.77;;;;;;;;;;4884667;29;20080;-78
2021/01/02 03:43:17;;;;;;;76.60;29.98;;;;;;;;;;4884514;29;20053;-79
2021/01/02 03:45:43;;;;;;;73.05;28.70;;;3.10;99.90;;;;;;4885822;29;20384;-78
2021/01/02 03:48:09;;;;;;;82.15;29.23;;;;;;;;;;4885470;29;20053;-78
2021/01/02 03:50:35;;;;;;;84.57;30.48;;;3.10;99.90;;;;;;4885607;29;20055;-79
2021/01/02 03:53:01;;;;;;;71.82;26.75;;;;;;;;;;4886162;29;20125;-80
2021/01/02 03:55:27;;;;;;;75.38;30.30;;;;;;;;;;4886601;29;20052;-79
2021/01/02 03:57:53;;;;;;;80.15;28.77;;;;;;;;;;4887242;29;20056;-78
2021/01/02 04:00:20;;;;;;;86.60;30.48;;;3.00;99.90;;;;;;4889387;29;20080;-79
2021/01/02 04:02:46;;;;;;;71.78;28.73;;;;;;;;;;4892199;29;20132;-79
2021/01/02 04:05:13;;;;;;;74.95;28.50;;;;;;;;;;4894054;29;20049;-81
2021/01/02 04:07:39;;;;;;;71.50;28.55;;;;;;;;;;4895137;29;20049;-78
2021/01/02 04:10:06;;;;;;;77.70;28.77;;;;;;;;;;4894311;29;20165;-82
2021/01/02 04:12:31;;;;;;;75.00;29.08;;;3.30;99.90;;;;;;4897872;29;20045;-81
2021/01/02 04:14:57;;;;;;;79.45;30.33;;;;;;;;;;4895691;29;20073;-79
2021/01/02 04:17:23;;;;;;;77.80;29.20;;;;;;;;;;4884312;29;20059;-79
2021/01/02 04:19:50;;;;;;;69.70;26.50;;;;;;;;;;4883461;29;20056;-78
2021/01/02 04:22:17;;;;;;;72.22;28.67;;;3.40;99.90;;;;;;4885181;29;20041;-79
2021/01/02 04:24:43;;;;;;;74.07;26.77;;;;;;;;;;4884200;29;20467;-79
2021/01/02 04:27:08;;;;;;;66.43;27.85;;;3.30;99.90;;;;;;4883291;29;20049;-79
2021/01/02 04:29:34;;;;;;;69.15;27.80;;;4.10;99.90;;;;;;4882667;29;20104;-79
2021/01/02 04:32:01;;;;;;;77.65;29.05;;;;;;;;;;4884071;29;20049;-79
2021/01/02 04:34:27;;;;;;;69.65;26.15;;;;;;;;;;4880295;29;20053;-79
2021/01/02 04:36:54;;;;;;;75.53;29.83;;;;;;;;;;4882877;29;20193;-79
2021/01/02 04:39:20;;;;;;;68.05;23.90;;;;;;;;;;4882675;29;20052;-78
2021/01/02 04:41:46;;;;;;;75.20;28.55;;;3.00;99.90;;;;;;4882944;29;20049;-79
2021/01/02 04:44:13;;;;;;;82.40;28.98;;;3.00;99.90;;;;;;4883263;29;20049;-79
2021/01/02 04:46:43;;;;;;;74.55;27.75;;;3.00;99.90;;;;;;4883902;29;20077;-79
2021/01/02 04:49:10;;;;;;;67.63;27.13;;;;;;;;;;4882190;29;20550;-79
2021/01/02 04:51:35;;;;;;;81.35;28.95;;;3.00;99.90;;;;;;4882509;29;20120;-78
2021/01/02 04:54:03;;;;;;;77.72;28.02;;;3.00;99.90;;;;;;4883458;29;20479;-78
2021/01/02 04:56:32;;;;;;;67.70;27.20;;;3.10;99.90;;;;;;4882889;29;20177;-78
2021/01/02 04:59:01;;;;;;;80.00;27.58;;;3.10;99.90;;;;;;4882972;29;20060;-79
2021/01/02 05:01:28;;;;;;;76.30;27.73;;;;;;;;;;4882780;29;20072;-78
2021/01/02 05:03:54;;;;;;;75.32;28.13;;;;;;;;;;4883854;29;20656;-78
2021/01/02 05:06:21;;;;;;;78.72;28.52;;;3.00;99.90;;;;;;4883079;29;20051;-78
2021/01/02 05:08:48;;;;;;;75.55;28.25;;;3.00;99.90;;;;;;4883660;29;20407;-78
2021/01/02 05:11:17;;;;;;;81.43;29.77;;;2.90;99.90;;;;;;4883034;29;20072;-79
2021/01/02 05:13:43;;;;;;;71.85;27.52;;;;;;;;;;4884192;29;20064;-78
2021/01/02 05:16:17;;;;;;;83.22;30.23;;;2.90;99.90;;;;;;4883156;29;20052;-78
2021/01/02 05:18:57;;;;;;;85.47;29.98;;;2.90;99.90;;;;;;4883865;29;20049;-78
2021/01/02 05:21:24;;;;;;;79.90;28.55;;;2.80;99.90;;;;;;4883009;29;20049;-80
2021/01/02 05:24:03;;;;;;;72.07;26.88;;;2.20;99.90;;;;;;4882797;29;20071;-80
2021/01/02 05:26:31;;;;;;;82.43;30.63;;;;;;;;;;4883750;29;20093;-80
2021/01/02 05:29:17;;;;;;;77.15;28.45;;;3.00;99.90;;;;;;4882566;29;20049;-80
2021/01/02 05:31:45;;;;;;;74.47;28.10;;;3.10;99.90;;;;;;4883237;29;20096;-80
2021/01/02 05:34:12;;;;;;;70.72;26.90;;;3.10;99.90;;;;;;4882973;29;20045;-80
2021/01/02 05:36:38;;;;;;;76.13;28.65;;;3.10;99.90;;;;;;4884100;29;20045;-80
2021/01/02 05:39:06;;;;;;;76.85;28.02;;;3.20;99.90;;;;;;4882613;29;20479;-78
2021/01/02 05:41:51;;;;;;;75.55;27.38;;;3.20;99.90;;;;;;4883858;29;20089;-78
2021/01/02 05:44:17;;;;;;;74.00;27.83;;;;;;;;;;4883576;29;20120;-78
2021/01/02 05:46:45;;;;;;;70.07;27.50;;;3.10;99.90;;;;;;4882315;29;20104;-78
2021/01/02 05:49:32;;;;;;;69.90;27.92;;;3.10;99.90;;;;;;4878955;29;20073;-79
2021/01/02 05:51:59;;;;;;;68.93;26.85;;;3.30;99.90;;;;;;4882378;29;20048;-79
2021/01/02 05:54:26;;;;;;;73.32;28.65;;;3.10;99.90;;;;;;4882312;29;20503;-78
2021/01/02 05:56:56;;;;;;;73.18;27.52;;;;;;;;;;4882925;29;20044;-79
2021/01/02 05:59:33;;;;;;;69.25;27.67;;;3.20;99.90;;;;;;4882095;29;20053;-78
2021/01/02 06:02:21;;;;;;;73.10;26.95;;;3.10;99.90;;;;;;4882737;29;20554;-78
2021/01/02 06:05:00;;;;;;;66.80;26.15;;;3.20;99.90;;;;;;4883506;29;20049;-78
2021/01/02 06:07:27;;;;;;;73.18;28.63;;;3.00;99.90;;;;;;4883820;29;20045;-80
2021/01/02 06:09:53;;;;;;;72.20;27.38;;;;;;;;;;4886035;29;20104;-78
2021/01/02 06:12:28;;;;;;;72.57;25.83;;;3.00;99.90;;;;;;4887269;29;20074;-79
2021/01/02 06:14:55;;;;;;;78.28;28.30;;;2.90;99.90;;;;;;4885879;29;20041;-79
2021/01/02 06:17:30;;;;;;;76.30;28.70;;;2.90;99.90;;;;;;4885891;29;20491;-79
2021/01/02 06:19:58;;;;;;;78.35;28.25;;;2.90;99.90;;;;;;4885912;29;20048;-78
2021/01/02 06:22:24;;;;;;;83.28;28.45;;;2.90;99.90;;;;;;4885632;29;20041;-78
2021/01/02 06:24:50;;;;;;;71.45;26.55;;;3.10;99.90;;;;;;4886308;29;20104;-78
2021/01/02 06:27:17;;;;;;;67.45;26.70;;;4.30;99.90;;;;;;4886336;29;20045;-78
2021/01/02 06:29:47;;;;;;;68.45;26.27;;;;;;;;;;4886840;29;20483;-79
2021/01/02 06:32:13;;;;;;;70.63;27.30;;;;;;;;;;4885629;29;20057;-79
2021/01/02 06:34:39;;;;;;;74.85;27.30;;;;;;;;;;4887272;29;20434;-78
2021/01/02 06:37:05;;;;;;;70.18;26.60;;;;;;;;;;4885964;29;20048;-78
2021/01/02 06:39:32;;;;;;;70.00;27.17;;;;;;;;;;4885454;29;20105;-79
2021/01/02 06:41:58;;;;;;;70.00;26.85;;;;;;;;;;4886128;29;20045;-79
2021/01/02 06:44:41;;;;;;;76.57;29.25;;;3.20;99.90;;;;;;4888461;29;20068;-78
2021/01/02 06:47:19;;;;;;;75.13;28.30;;;3.30;99.90;;;;;;4888446;29;20063;-78
2021/01/02 06:49:45;;;;;;;75.10;27.08;;;;;;;;;;4885731;29;20049;-79
2021/01/02 06:52:29;;;;;;;67.68;26.77;;;3.40;99.90;;;;;;4888172;29;20384;-78
2021/01/02 06:55:17;;;;;;;66.68;25.75;;;3.30;99.90;;;;;;4889400;29;20108;-79
2021/01/02 06:57:43;;;;;;;69.70;26.75;;;;;;;;;;4890797;29;20605;-81
2021/01/02 07:00:19;;;;;;;71.05;26.38;;;3.10;99.90;;;;;;4892350;29;20060;-81
2021/01/02 07:02:46;;;;;;;82.00;27.90;;;3.10;99.90;;;;;;4895355;29;20053;-82
2021/01/02 07:05:12;;;;;;;73.30;26.67;;;;;;;;;;4901813;29;20062;-84
2021/01/02 07:07:39;;;;;;;80.55;30.05;;;;;;;;;;4895615;29;20053;-82
2021/01/02 07:10:16;;;;;;;75.93;29.73;;;;;;;;;;4892703;29;20049;-82
2021/01/02 07:12:42;;;;;;;74.10;29.05;;;;;;;;;;4891114;29;20045;-82
2021/01/02 07:15:08;;;;;;;78.80;27.98;;;;;;;;;;4893079;29;20084;-83
2021/01/02 07:17:34;;;;;;;64.05;24.55;;;;;;;;;;4893321;29;20048;-80
2021/01/02 07:20:05;;;;;;;80.72;28.67;;;;;;;;;;4885151;29;20076;-80
2021/01/02 07:22:31;;;;;;;75.25;29.83;;;2.80;99.90;;;;;;4885599;29;20391;-81
2021/01/02 07:25:02;;;;;;;79.85;28.67;;;3.00;99.90;;;;;;4886371;29;20053;-80
2021/01/02 07:27:30;;;;;;;81.10;28.98;;;3.00;99.90;;;;;;4884617;29;20047;-80
2021/01/02 07:29:58;;;;;;;76.28;28.33;;;3.10;99.90;;;;;;4884293;29;20056;-80
2021/01/02 07:32:25;;;;;;;77.93;29.63;;;3.10;99.90;;;;;;4887217;29;20059;-78
2021/01/02 07:34:54;;;;;;;72.75;26.90;;;3.10;99.90;;;;;;4886956;29;20061;-78
2021/01/02 07:37:23;;;;;;;75.35;27.42;;;3.30;99.90;;;;;;4886006;29;20049;-79
2021/01/02 07:39:53;;;;;;;73.10;27.77;;;3.20;99.90;;;;;;4886053;29;20116;-79
2021/01/02 07:42:20;;;;;;;73.47;26.98;;;3.10;99.90;;;;;;4885858;29;20048;-78
2021/01/02 07:44:54;;;;;;;76.00;28.83;;;3.30;99.90;;;;;;4886071;29;20041;-78
2021/01/02 07:47:20;;;;;;;73.63;27.58;;;;;;;;;;4886576;29;20041;-79
2021/01/02 07:49:46;;;;;;;80.32;28.02;;;;;;;;;;4888777;29;20065;-79
2021/01/02 07:52:12;;;;;;;77.77;28.20;;;;;;;;;;4886227;29;20057;-79
2021/01/02 07:54:39;;;;;;;85.35;31.17;;;;;;;;;;4884525;29;20415;-80
2021/01/02 07:57:06;;;;;;;83.68;29.88;;;3.00;99.90;;;;;;4884313;29;20406;-79
2021/01/02 07:59:33;;;;;;;79.72;29.02;;;3.00;99.90;;;;;;4881827;29;20048;-79
2021/01/02 08:02:00;;;;;;;78.32;29.52;;;3.00;99.90;;;;;;4884712;29;20049;-79
2021/01/02 08:04:29;;;;;;;86.43;29.95;;;3.00;99.90;;;;;;4884199;29;20080;-79
2021/01/02 08:06:56;;;;;;;80.88;29.98;;;3.10;99.90;;;;;;4885085;29;20060;-79
2021/01/02 08:09:23;;;;;;;73.82;28.00;;;;;;;;;;4882957;29;20048;-79
2021/01/02 08:11:52;;;;;;;75.35;29.13;;;0.40;99.90;;;;;;4882790;29;20053;-79
2021/01/02 08:14:18;;;;;;;69.70;27.67;;;;;;;;;;4883585;29;20511;-79
2021/01/02 08:17:05;;;;;;;81.35;28.00;;;3.30;99.90;;;;;;4885029;29;20048;-79
2021/01/02 08:19:33;;;;;;;86.40;29.48;;;3.40;99.90;;;;;;4884608;29;20100;-78
2021/01/02 08:22:04;;;;;;;77.70;28.63;;;3.40;99.90;;;;;;4884510;29;20078;-78
2021/01/02 08:24:30;;;;;;;73.78;27.60;;;3.30;99.90;;;;;;4883308;29;20104;-79
2021/01/02 08:26:57;;;;;;;73.45;28.00;;;;;;;;;;4885939;29;20436;-80
2021/01/02 08:29:27;;;;;;;74.70;28.23;;;3.50;99.90;;;;;;4881863;29;20510;-78
2021/01/02 08:31:56;;;;;;;69.18;27.75;;;3.40;99.90;;;;;;4883523;29;20104;-78
2021/01/02 08:34:29;;;;;;;74.47;29.40;;;3.50;99.90;;;;;;4883788;29;20052;-78
2021/01/02 08:37:06;;;;;;;66.53;26.85;;;3.50;99.90;;;;;;4885807;29;20049;-78
2021/01/02 08:39:33;;;;;;;72.60;27.08;;;3.40;99.90;;;;;;4882865;29;20112;-78
2021/01/02 08:42:00;;;;;;;76.07;28.15;;;3.40;99.90;;;;;;4882724;29;20041;-77
2021/01/02 08:44:28;;;;;;;73.07;27.60;;;3.50;99.90;;;;;;4883437;29;20053;-78
2021/01/02 08:46:54;;;;;;;70.15;27.50;;;;;;;;;;4883218;29;20052;-78
2021/01/02 08:49:45;;;;;;;73.30;27.70;;;3.60;99.90;;;;;;4880917;29;20056;-78
2021/01/02 08:52:25;;;;;;;68.72;27.55;;;3.60;99.90;;;;;;4880999;29;20483;-78
2021/01/02 08:54:53;;;;;;;63.55;27.08;;;3.50;99.90;;;;;;4880848;29;20419;-78
2021/01/02 08:57:27;;;;;;;74.18;26.52;;;3.40;99.90;;;;;;4880820;29;20048;-78
2021/01/02 09:00:15;;;;;;;67.40;27.08;;;3.40;99.90;;;;;;4880613;29;20396;-78
2021/01/02 09:02:43;;;;;;;77.20;28.90;;;3.30;99.90;;;;;;4881218;29;20037;-78
2021/01/02 09:05:10;;;;;;;74.40;29.35;;;3.30;99.90;;;;;;4880442;29;20120;-78
2021/01/02 09:07:36;;;;;;;70.85;26.58;;;4.10;99.90;;;;;;4880550;29;20045;-78
2021/01/02 09:10:16;;;;;;;74.88;29.83;;;3.40;99.90;;;;;;4881363;29;20045;-78
2021/01/02 09:12:44;;;;;;;69.85;26.90;;;;;;;;;;4880512;29;20129;-78
2021/01/02 09:15:10;;;;;;;67.82;27.15;;;3.60;99.90;;;;;;4880776;29;20108;-78
2021/01/02 09:17:48;;;;;;;67.93;27.63;;;4.10;99.90;;;;;;4881349;29;20432;-78
2021/01/02 09:20:15;;;;;;;91.38;38.47;;;3.60;99.90;;;;;;4879717;29;20077;-78
2021/01/02 09:22:51;;;;;;;82.35;35.65;;;3.70;99.90;;;;;;4879810;29;20037;-78
2021/01/02 09:25:18;;;;;;;67.53;26.75;;;;;;;;;;4881779;29;20128;-78
2021/01/02 09:27:44;;;;;;;74.43;27.70;;;3.60;99.90;;;;;;4880610;29;20081;-78
2021/01/02 09:30:10;;;;;;;74.32;28.33;;;3.50;99.90;;;;;;4880397;29;20406;-79
2021/01/02 09:32:38;;;;;;;69.25;27.58;;;3.60;99.90;;;;;;4879806;29;20045;-78
2021/01/02 09:35:05;;;;;;;71.68;27.23;;;3.60;99.90;;;;;;4879905;29;20411;-78
2021/01/02 09:37:31;;;;;;;69.97;26.23;;;3.60;99.90;;;;;;4880085;29;20072;-79
2021/01/02 09:40:12;;;;;;;76.75;31.17;;;3.60;99.90;;;;;;4880122;29;20056;-80
2021/01/02 09:42:38;;;;;;;76.65;30.27;;;3.50;99.90;;;;;;4882275;29;20048;-78
2021/01/02 09:45:05;;;;;;;74.68;27.02;;;4.20;99.90;;;;;;4884278;29;20096;-79
2021/01/02 09:47:31;;;;;;;73.60;26.67;;;;;;;;;;4885162;29;20558;-78
2021/01/02 09:49:57;;;;;;;67.15;26.13;;;3.60;99.90;;;;;;4884449;29;20551;-78
2021/01/02 09:52:22;;;;;;;68.10;25.95;;;3.50;99.90;;;;;;4884296;29;20041;-79
2021/01/02 09:54:48;;;;;;;72.20;27.38;;;4.10;99.90;;;;;;4885521;29;20117;-79
2021/01/02 09:57:15;;;;;;;74.15;26.88;;;;;;;;;;4884779;29;20049;-78
2021/01/02 09:59:43;;;;;;;65.57;26.58;;;;;;;;;;4884729;29;20052;-78
2021/01/02 10:02:08;;;;;;;72.65;26.77;;;3.40;99.90;;;;;;4886584;29;20084;-80
2021/01/02 10:04:34;;;;;;;74.90;25.55;;;4.90;99.90;;;;;;4886811;29;20045;-81
2021/01/02 10:06:59;;;;;;;75.25;27.92;;;3.30;99.90;;;;;;4886915;29;20048;-81
2021/01/02 10:09:25;;;;;;;73.45;27.15;;;3.30;99.90;;;;;;4887807;29;20428;-78
2021/01/02 10:11:51;;;;;;;72.72;28.35;;;3.30;99.90;;;;;;4886938;29;20052;-80
2021/01/02 10:14:17;;;;;;;71.80;26.77;;;3.40;99.90;;;;;;4891898;29;20076;-81
2021/01/02 10:16:43;;;;;;;66.82;27.58;;;;;;;;;;4890986;29;20075;-81
2021/01/02 10:19:09;;;;;;;69.18;25.38;;;3.60;99.90;;;;;;4886108;29;20057;-78
2021/01/02 10:21:35;;;;;;;72.95;27.00;;;3.60;99.90;;;;;;4885034;29;20403;-78
2021/01/02 10:24:00;;;;;;;69.00;27.15;;;4.90;99.90;;;;;;4883438;29;20051;-78
2021/01/02 10:26:26;;;;;;;75.97;27.95;;;3.60;99.90;;;;;;4884957;29;20392;-78
2021/01/02 10:28:52;;;;;;;74.75;28.00;;;;;;;;;;4883354;29;20076;-78
2021/01/02 10:31:19;;;;;;;78.50;28.90;;;;;;;;;;4883355;29;20562;-79
2021/01/02 10:33:45;;;;;;;72.43;28.30;;;3.60;99.90;;;;;;4883576;29;20060;-78
2021/01/02 10:36:12;;;;;;;70.30;27.58;;;3.60;99.90;;;;;;4883239;29;20055;-78
2021/01/02 10:38:37;;;;;;;63.65;26.38;;;3.60;99.90;;;;;;4883228;29;20045;-78
2021/01/02 10:41:03;;;;;;;70.25;27.65;;;;;;;;;;4883362;29;20137;-78
2021/01/02 10:43:29;;;;;;;65.60;27.38;;;3.70;99.90;;;;;;4883560;29;20073;-78
2021/01/02 10:45:54;;;;;;;67.88;26.45;;;3.70;99.90;;;;;;4883339;29;20045;-78
2021/01/02 10:48:21;;;;;;;73.38;26.40;;;;;;;;;;4881253;29;20045;-77
2021/01/02 10:50:47;;;;;;;66.82;25.85;;;;;;;;;;4883197;29;20044;-78
2021/01/02 10:53:13;;;;;;;63.55;27.80;;;;;;;;;;4883597;29;20071;-78
2021/01/02 10:55:39;;;;;;;63.63;25.20;;;;;;;;;;4883746;29;20559;-78
2021/01/02 10:58:05;;;;;;;60.20;25.10;;;;;;;;;;4882465;29;20060;-78
2021/01/02 11:00:31;;;;;;;71.90;26.05;;;;;;;;;;4883254;29;20073;-78
2021/01/02 11:02:57;;;;;;;55.78;24.88;;;;;;;;;;4883748;29;20492;-78
2021/01/02 11:05:24;;;;;;;64.20;25.02;;;3.90;99.90;;;;;;4882315;29;20140;-78
2021/01/02 11:07:50;;;;;;;62.33;25.13;;;;;;;;;;4882304;29;20056;-78
2021/01/02 11:10:16;;;;;;;58.55;25.15;;;;;;;;;;4882201;29;20056;-78
2021/01/02 11:12:42;;;;;;;61.00;25.00;;;3.80;99.90;;;;;;4882022;29;20076;-79
2021/01/02 11:15:08;;;;;;;65.75;26.00;;;3.80;99.90;;;;;;4883242;29;20057;-77
2021/01/02 11:17:35;;;;;;;63.38;24.17;;;;;;;;;;4883003;29;20045;-79
2021/01/02 11:20:01;;;;;;;55.38;24.95;;;4.00;99.90;;;;;;4881438;29;20521;-79
2021/01/02 11:22:28;;;;;;;55.65;23.00;;;;;;;;;;4882231;29;20036;-79
2021/01/02 11:24:54;;;;;;;62.78;25.00;;;;;;;;;;4882307;29;20120;-79
2021/01/02 11:27:20;;;;;;;55.55;23.73;;;4.10;99.90;;;;;;4882401;29;20069;-78
2021/01/02 11:29:46;;;;;;;63.00;25.00;;;;;;;;;;4899083;29;20127;-79
2021/01/02 11:32:12;;;;;;;57.67;23.70;;;;;;;;;;4899866;29;20053;-79
2021/01/02 11:34:39;;;;;;;55.78;24.02;;;4.40;99.90;;;;;;4900428;29;20056;-79
2021/01/02 11:37:07;;;;;;;57.78;23.95;;;4.40;99.90;;;;;;4899986;29;20052;-77
2021/01/02 11:39:34;;;;;;;61.00;24.42;;;;;;;;;;4886527;29;20049;-79
2021/01/02 11:42:02;;;;;;;60.20;24.67;;;4.40;99.90;;;;;;4885243;29;20052;-78
2021/01/02 11:44:29;;;;;;;58.90;23.63;;;;;;;;;;4884832;29;20048;-78
2021/01/02 11:46:57;;;;;;;50.20;22.52;;;4.20;99.90;;;;;;4883593;29;20052;-78
2021/01/02 11:49:25;;;;;;;60.38;24.00;;;4.20;99.90;;;;;;4883641;29;20136;-78
2021/01/02 11:51:52;;;;;;;55.60;22.83;;;4.20;99.90;;;;;;4881692;29;20041;-78
2021/01/02 11:54:19;;;;;;;55.13;23.77;;;4.30;99.90;;;;;;4881141;29;20053;-78
2021/01/02 11:56:46;;;;;;;60.75;25.02;;;4.20;99.90;;;;;;4881380;29;20581;-78
2021/01/02 11:59:13;;;;;;;56.92;23.98;;;;;;;;;;4880786;29;20395;-79
2021/01/02 12:01:41;;;;;;;49.95;20.60;;;4.40;99.90;;;;;;4881639;29;20507;-79
2021/01/02 12:04:08;;;;;;;46.88;21.08;;;4.40;99.90;;;;;;4880887;29;20052;-78
2021/01/02 12:06:35;;;;;;;56.03;24.00;;;;;;;;;;4881562;29;20156;-78
2021/01/02 12:09:01;;;;;;;51.80;22.45;;;4.10;99.90;;;;;;4882384;29;20049;-78
2021/01/02 12:11:28;;;;;;;54.03;23.08;;;4.20;99.90;;;;;;4881099;29;20052;-78
2021/01/02 12:13:55;;;;;;;54.40;22.75;;;;;;;;;;4881975;29;20120;-78
2021/01/02 12:16:29;;;;;;;51.05;22.38;;;4.40;99.90;;;;;;4868146;29;20101;-79
2021/01/02 12:18:55;;;;;;;56.55;22.80;;;;;;;;;;4861985;29;20119;-81
2021/01/02 12:21:21;;;;;;;47.35;21.67;;;;;;;;;;4863924;29;20041;-78
2021/01/02 12:23:48;;;;;;;54.67;22.73;;;;;;;;;;4861835;29;20045;-79
2021/01/02 12:26:14;;;;;;;34.72;13.98;;;4.50;99.90;;;;;;4862073;29;20053;-78
2021/01/02 12:28:40;;;;;;;44.95;21.45;;;;;;;;;;4863203;29;20076;-77
2021/01/02 12:31:07;;;;;;;57.63;23.40;;;;;;;;;;4862709;29;20088;-79
2021/01/02 12:33:34;;;;;;;74.25;23.75;;;;;;;;;;4863624;29;20106;-78
2021/01/02 12:35:59;;;;;;;52.35;22.88;;;4.30;99.90;;;;;;4862785;29;20054;-79
2021/01/02 12:38:25;;;;;;;56.33;23.58;;;;;;;;;;4862095;29;20408;-79
2021/01/02 12:40:51;;;;;;;48.55;21.95;;;4.20;99.90;;;;;;4863217;29;20045;-79
2021/01/02 12:43:17;;;;;;;50.60;21.85;;;;;;;;;;4864093;29;20045;-79
2021/01/02 12:45:43;;;;;;;49.15;20.13;;;4.20;99.90;;;;;;4865953;29;20049;-78
2021/01/02 12:48:10;;;;;;;54.45;22.67;;;;;;;;;;4864629;29;20484;-79
2021/01/02 12:50:36;;;;;;;45.88;20.65;;;;;;;;;;4865571;29;20081;-79
2021/01/02 12:53:02;;;;;;;48.08;21.92;;;4.40;99.90;;;;;;4865200;29;20076;-79
2021/01/02 12:55:28;;;;;;;48.15;20.55;;;;;;;;;;4866306;29;20056;-79
2021/01/02 12:57:54;;;;;;;45.15;20.15;;;;;;;;;;4865394;29;20563;-79
2021/01/02 13:00:20;;;;;;;50.55;22.63;;;4.40;99.90;;;;;;4864744;29;20053;-78
2021/01/02 13:02:46;;;;;;;50.60;21.95;;;;;;;;;;4867418;29;20041;-79
2021/01/02 13:05:13;;;;;;;48.20;21.00;;;4.50;99.90;;;;;;4868122;29;20136;-79
2021/01/02 13:07:39;;;;;;;47.90;21.92;;;;;;;;;;4870225;29;20045;-79
2021/01/02 13:10:06;;;;;;;48.40;21.20;;;4.50;99.90;;;;;;4873420;29;20445;-80
2021/01/02 13:12:32;;;;;;;44.95;19.80;;;;;;;;;;4873391;29;20049;-79
2021/01/02 13:14:58;;;;;;;51.22;21.42;;;;;;;;;;4876823;29;20105;-81
2021/01/02 13:17:24;;;;;;;43.65;19.30;;;;;;;;;;4876983;29;20045;-81
2021/01/02 13:19:50;;;;;;;44.40;20.30;;;;;;;;;;4870589;29;20061;-78
2021/01/02 13:22:18;;;;;;;48.45;20.58;;;;;;;;;;4861739;29;20098;-79
2021/01/02 13:24:46;;;;;;;50.83;20.90;;;;;;;;;;4862984;29;20105;-78